createdAt,value
2018-05-17T00:00:18.319Z,20.93
2018-05-17T00:02:45.872Z,26.40
2018-05-17T00:05:13.440Z,23.43
2018-05-17T00:07:40.986Z,25.77
2018-05-17T00:10:08.512Z,22.20
2018-05-17T00:12:36.031Z,27.90
2018-05-17T00:15:03.552Z,24.00
2018-05-17T00:17:31.849Z,19.80
2018-05-17T00:19:59.423Z,21.17
2018-05-17T00:22:26.986Z,26.50
2018-05-17T00:24:54.525Z,27.63
2018-05-17T00:27:22.040Z,22.13
2018-05-17T00:29:49.561Z,27.80
2018-05-17T00:32:17.088Z,24.83
2018-05-17T00:34:45.380Z,27.27
2018-05-17T00:37:13.661Z,26.40
2018-05-17T00:39:41.180Z,30.30
2018-05-17T00:42:08.690Z,31.50
2018-05-17T00:44:36.258Z,26.53
2018-05-17T00:47:03.796Z,23.27
2018-05-17T00:49:31.474Z,25.00
2018-05-17T00:51:58.998Z,24.67
2018-05-17T00:54:27.306Z,24.50
2018-05-17T00:56:54.860Z,25.93
2018-05-17T00:59:22.384Z,31.20
2018-05-17T01:01:49.997Z,19.90
2018-05-17T01:04:17.510Z,36.47
2018-05-17T01:06:45.027Z,26.40
2018-05-17T01:09:12.558Z,29.07
2018-05-17T01:11:40.142Z,29.53
2018-05-17T01:14:07.682Z,27.57
2018-05-17T01:16:35.196Z,31.03
2018-05-17T01:19:02.816Z,28.43
2018-05-17T01:21:30.341Z,24.07
2018-05-17T01:23:58.639Z,23.20
2018-05-17T01:26:26.156Z,22.30
2018-05-17T01:28:53.667Z,28.50
2018-05-17T01:31:21.200Z,30.60
2018-05-17T01:33:49.606Z,30.20
2018-05-17T01:36:17.112Z,30.57
2018-05-17T01:38:44.715Z,29.07
2018-05-17T01:41:12.236Z,29.73
2018-05-17T01:43:39.854Z,31.00
2018-05-17T01:46:07.409Z,25.53
2018-05-17T01:48:34.973Z,24.43
2018-05-17T01:51:02.495Z,25.97
2018-05-17T01:53:30.797Z,30.40
2018-05-17T01:55:58.369Z,26.13
2018-05-17T01:58:25.927Z,30.57
2018-05-17T02:00:53.487Z,22.90
2018-05-17T02:03:20.997Z,27.27
2018-05-17T02:05:48.513Z,24.50
2018-05-17T02:08:16.039Z,33.03
2018-05-17T02:10:44.339Z,28.27
2018-05-17T02:13:11.851Z,26.33
2018-05-17T02:15:39.455Z,32.47
2018-05-17T02:18:06.970Z,27.30
2018-05-17T02:20:35.291Z,26.90
2018-05-17T02:23:02.831Z,30.57
2018-05-17T02:25:31.129Z,25.33
2018-05-17T02:27:58.663Z,28.17
2018-05-17T02:30:26.973Z,26.40
2018-05-17T02:32:54.521Z,25.93
2018-05-17T02:35:22.039Z,24.00
2018-05-17T02:37:49.645Z,26.80
2018-05-17T02:40:17.221Z,25.97
2018-05-17T02:42:44.753Z,22.23
2018-05-17T02:45:13.055Z,22.17
2018-05-17T02:47:40.558Z,25.23
2018-05-17T02:50:08.081Z,28.47
2018-05-17T02:52:35.610Z,18.27
2018-05-17T02:55:03.900Z,29.87
2018-05-17T02:57:31.461Z,26.20
2018-05-17T02:59:58.998Z,27.43
2018-05-17T03:02:27.289Z,20.57
2018-05-17T03:04:54.809Z,24.37
2018-05-17T03:07:22.347Z,24.40
2018-05-17T03:09:49.861Z,23.57
2018-05-17T03:12:18.158Z,24.80
2018-05-17T03:14:45.696Z,24.20
2018-05-17T03:17:14.086Z,24.40
2018-05-17T03:19:41.602Z,25.53
2018-05-17T03:22:09.129Z,20.67
2018-05-17T03:24:36.637Z,26.83
2018-05-17T03:27:04.156Z,25.67
2018-05-17T03:29:31.784Z,25.23
2018-05-17T03:31:59.361Z,21.70
2018-05-17T03:34:26.880Z,27.90
2018-05-17T03:36:54.420Z,26.97
2018-05-17T03:39:22.031Z,23.33
2018-05-17T03:41:49.548Z,23.67
2018-05-17T03:44:17.108Z,27.63
2018-05-17T03:46:44.624Z,26.20
2018-05-17T03:49:12.153Z,21.63
2018-05-17T03:51:40.454Z,28.73
2018-05-17T03:54:07.971Z,24.97
2018-05-17T03:56:35.584Z,21.13
2018-05-17T03:59:03.110Z,24.30
2018-05-17T04:01:43.332Z,27.73
2018-05-17T04:04:22.760Z,24.93
2018-05-17T04:06:50.282Z,23.83
2018-05-17T04:09:17.855Z,29.37
2018-05-17T04:11:45.395Z,22.50
2018-05-17T04:14:12.978Z,25.00
2018-05-17T04:16:40.504Z,24.10
2018-05-17T04:19:08.790Z,24.70
2018-05-17T04:21:37.450Z,30.57
2018-05-17T04:24:04.958Z,25.60
2018-05-17T04:26:32.504Z,21.80
2018-05-17T04:29:00.066Z,22.87
2018-05-17T04:31:27.640Z,29.23
2018-05-17T04:33:55.186Z,22.10
2018-05-17T04:36:22.756Z,28.00
2018-05-17T04:38:50.276Z,21.63
2018-05-17T04:41:18.583Z,26.20
2018-05-17T04:43:46.107Z,20.70
2018-05-17T04:46:13.626Z,19.17
2018-05-17T04:48:41.154Z,25.10
2018-05-17T04:51:08.719Z,19.77
2018-05-17T04:53:36.282Z,27.03
2018-05-17T04:56:03.817Z,22.20
2018-05-17T04:58:32.106Z,17.93
2018-05-17T05:01:00.379Z,21.73
2018-05-17T05:03:28.679Z,25.00
2018-05-17T05:05:56.203Z,22.87
2018-05-17T05:08:24.489Z,21.77
2018-05-17T05:10:52.797Z,25.97
2018-05-17T05:13:20.340Z,26.03
2018-05-17T05:15:47.866Z,27.07
2018-05-17T05:18:15.425Z,18.33
2018-05-17T05:20:42.931Z,21.07
2018-05-17T05:23:10.445Z,21.63
2018-05-17T05:25:37.987Z,25.57
2018-05-17T05:28:05.513Z,26.23
2018-05-17T05:30:33.025Z,23.60
2018-05-17T05:33:00.625Z,26.60
2018-05-17T05:35:28.136Z,24.10
2018-05-17T05:37:55.672Z,20.57
2018-05-17T05:40:23.235Z,31.40
2018-05-17T05:42:50.751Z,24.70
2018-05-17T05:45:18.279Z,27.37
2018-05-17T05:47:45.812Z,27.13
2018-05-17T05:50:13.326Z,20.20
2018-05-17T05:52:41.636Z,28.83
2018-05-17T05:55:09.256Z,23.40
2018-05-17T05:57:36.733Z,25.07
2018-05-17T06:00:04.249Z,24.40
2018-05-17T06:02:31.793Z,26.33
2018-05-17T06:04:59.437Z,22.23
2018-05-17T06:07:26.961Z,20.10
2018-05-17T06:09:55.255Z,22.10
2018-05-17T06:12:22.786Z,24.90
2018-05-17T06:14:51.081Z,23.80
2018-05-17T06:17:19.470Z,24.93
2018-05-17T06:19:47.044Z,24.73
2018-05-17T06:22:14.565Z,24.90
2018-05-17T06:24:42.874Z,24.57
2018-05-17T06:27:10.404Z,29.93
2018-05-17T06:29:38.788Z,25.37
2018-05-17T06:32:07.094Z,25.83
2018-05-17T06:34:34.619Z,26.73
2018-05-17T06:37:02.920Z,21.93
2018-05-17T06:39:30.457Z,22.77
2018-05-17T06:41:58.754Z,28.27
2018-05-17T06:44:26.293Z,25.33
2018-05-17T06:46:54.612Z,24.27
2018-05-17T06:49:22.162Z,23.17
2018-05-17T06:51:49.717Z,25.80
2018-05-17T06:54:17.246Z,20.20
2018-05-17T06:56:45.536Z,25.57
2018-05-17T06:59:13.826Z,24.67
2018-05-17T07:01:41.390Z,23.27
2018-05-17T07:04:08.907Z,23.90
2018-05-17T07:06:36.518Z,23.17
2018-05-17T07:09:06.097Z,23.73
2018-05-17T07:11:34.397Z,27.17
2018-05-17T07:14:01.934Z,23.77
2018-05-17T07:16:30.236Z,22.50
2018-05-17T07:18:57.762Z,23.37
2018-05-17T07:21:26.056Z,19.90
2018-05-17T07:23:54.343Z,22.77
2018-05-17T07:26:21.859Z,23.23
2018-05-17T07:28:49.460Z,25.67
2018-05-17T07:31:16.998Z,25.30
2018-05-17T07:33:45.309Z,22.03
2018-05-17T07:36:12.974Z,18.93
2018-05-17T07:38:40.504Z,20.23
2018-05-17T07:41:08.793Z,22.97
2018-05-17T07:43:37.118Z,23.87
2018-05-17T07:46:04.651Z,20.67
2018-05-17T07:48:32.170Z,27.13
2018-05-17T07:51:00.459Z,19.73
2018-05-17T07:53:28.756Z,28.47
2018-05-17T07:55:56.283Z,24.93
2018-05-17T07:58:24.576Z,23.53
2018-05-17T08:00:52.859Z,25.57
2018-05-17T08:03:21.157Z,26.80
2018-05-17T08:05:48.711Z,23.13
2018-05-17T08:08:16.252Z,16.03
2018-05-17T08:10:44.544Z,20.27
2018-05-17T08:13:12.077Z,19.20
2018-05-17T08:15:40.385Z,17.63
2018-05-17T08:18:07.907Z,21.87
2018-05-17T08:20:35.515Z,19.93
2018-05-17T08:23:03.039Z,17.07
2018-05-17T08:25:31.353Z,26.57
2018-05-17T08:27:58.873Z,21.00
2018-05-17T08:30:27.163Z,16.83
2018-05-17T08:32:54.691Z,19.80
2018-05-17T08:35:22.301Z,15.77
2018-05-17T08:37:49.859Z,17.83
2018-05-17T08:40:17.405Z,23.80
2018-05-17T08:42:45.820Z,19.07
2018-05-17T08:45:13.355Z,23.47
2018-05-17T08:47:40.922Z,23.23
2018-05-17T08:50:08.464Z,19.73
2018-05-17T08:52:36.777Z,19.43
2018-05-17T08:55:04.321Z,21.07
2018-05-17T08:57:31.879Z,19.60
2018-05-17T08:59:59.402Z,23.23
2018-05-17T09:02:26.927Z,19.77
2018-05-17T09:04:54.468Z,18.03
2018-05-17T09:07:22.013Z,16.23
2018-05-17T09:09:49.532Z,17.33
2018-05-17T09:12:17.059Z,12.53
2018-05-17T09:14:44.630Z,19.00
2018-05-17T09:17:12.161Z,20.83
2018-05-17T09:19:39.716Z,19.30
2018-05-17T09:22:07.282Z,22.10
2018-05-17T09:24:34.833Z,20.83
2018-05-17T09:27:02.397Z,22.23
2018-05-17T09:29:29.935Z,18.60
2018-05-17T09:31:58.221Z,19.80
2018-05-17T09:34:26.504Z,16.70
2018-05-17T09:36:54.089Z,18.43
2018-05-17T09:39:21.623Z,20.00
2018-05-17T09:41:49.153Z,18.37
2018-05-17T09:44:16.759Z,20.10
2018-05-17T09:46:44.276Z,19.93
2018-05-17T09:49:12.577Z,14.97
2018-05-17T09:51:40.896Z,16.37
2018-05-17T09:54:08.528Z,18.33
2018-05-17T09:56:36.064Z,18.37
2018-05-17T09:59:04.364Z,19.87
2018-05-17T10:01:31.933Z,15.37
2018-05-17T10:03:59.472Z,17.10
2018-05-17T10:06:27.773Z,21.73
2018-05-17T10:08:55.347Z,15.63
2018-05-17T10:11:22.883Z,16.43
2018-05-17T10:13:50.438Z,16.10
2018-05-17T10:16:17.975Z,19.60
2018-05-17T10:18:46.277Z,11.80
2018-05-17T10:21:13.853Z,15.33
2018-05-17T10:23:41.380Z,18.77
2018-05-17T10:26:09.657Z,18.03
2018-05-17T10:28:37.964Z,18.57
2018-05-17T10:31:05.511Z,21.60
2018-05-17T10:33:33.047Z,18.27
2018-05-17T10:36:01.352Z,15.17
2018-05-17T10:38:28.874Z,17.33
2018-05-17T10:40:56.469Z,14.90
2018-05-17T10:43:24.041Z,14.20
2018-05-17T10:45:51.601Z,16.03
2018-05-17T10:48:19.160Z,17.30
2018-05-17T10:50:46.711Z,16.33
2018-05-17T10:53:14.495Z,15.17
2018-05-17T10:55:42.037Z,11.77
2018-05-17T10:58:09.565Z,17.33
2018-05-17T11:00:37.862Z,18.70
2018-05-17T11:03:05.433Z,17.27
2018-05-17T11:05:38.541Z,17.90
2018-05-17T11:08:06.065Z,15.07
2018-05-17T11:10:34.361Z,15.63
2018-05-17T11:13:01.933Z,16.53
2018-05-17T11:15:29.465Z,14.73
2018-05-17T11:17:57.759Z,15.10
2018-05-17T11:20:25.335Z,15.53
2018-05-17T11:22:52.977Z,17.93
2018-05-17T11:25:20.504Z,18.23
2018-05-17T11:27:48.085Z,17.90
2018-05-17T11:30:16.380Z,16.03
2018-05-17T11:32:43.898Z,14.27
2018-05-17T11:35:11.435Z,16.13
2018-05-17T11:37:38.976Z,20.47
2018-05-17T11:40:06.547Z,17.93
2018-05-17T11:42:34.081Z,15.10
2018-05-17T11:45:01.655Z,14.07
2018-05-17T11:47:29.194Z,18.33
2018-05-17T11:49:56.716Z,15.90
2018-05-17T11:52:24.233Z,11.60
2018-05-17T11:54:51.787Z,16.07
2018-05-17T11:57:19.353Z,15.13
2018-05-17T11:59:46.912Z,14.70
2018-05-17T12:02:14.464Z,16.63
2018-05-17T12:04:42.014Z,15.23
2018-05-17T12:07:09.715Z,16.20
2018-05-17T12:09:37.234Z,18.77
2018-05-17T12:12:04.760Z,15.83
2018-05-17T12:14:32.280Z,13.60
2018-05-17T12:16:59.808Z,13.40
2018-05-17T12:19:28.207Z,12.77
2018-05-17T12:21:55.725Z,13.17
2018-05-17T12:24:24.038Z,12.90
2018-05-17T12:26:51.568Z,11.90
2018-05-17T12:29:19.858Z,13.20
2018-05-17T12:31:48.227Z,10.80
2018-05-17T12:34:15.715Z,11.27
2018-05-17T12:36:43.390Z,13.30
2018-05-17T12:39:10.945Z,16.00
2018-05-17T12:41:38.496Z,13.80
2018-05-17T12:44:06.023Z,14.20
2018-05-17T12:46:34.340Z,15.83
2018-05-17T12:49:01.885Z,12.47
2018-05-17T12:51:29.413Z,17.23
2018-05-17T12:53:56.939Z,15.43
2018-05-17T12:56:24.502Z,13.67
2018-05-17T12:58:52.060Z,13.73
2018-05-17T13:01:19.579Z,14.87
2018-05-17T13:03:47.971Z,14.83
2018-05-17T13:06:15.492Z,17.50
2018-05-17T13:08:43.020Z,22.47
2018-05-17T13:11:10.554Z,14.07
2018-05-17T13:13:38.081Z,16.17
2018-05-17T13:16:06.394Z,17.20
2018-05-17T13:18:34.279Z,14.90
2018-05-17T13:21:01.799Z,16.43
2018-05-17T13:23:30.089Z,12.23
2018-05-17T13:25:57.622Z,11.03
2018-05-17T13:28:25.948Z,14.47
2018-05-17T13:30:53.479Z,16.37
2018-05-17T13:33:21.873Z,13.27
2018-05-17T13:35:49.395Z,12.93
2018-05-17T13:38:16.981Z,20.53
2018-05-17T13:40:44.486Z,21.00
2018-05-17T13:43:12.123Z,21.33
2018-05-17T13:45:39.673Z,20.60
2018-05-17T13:48:07.241Z,16.80
2018-05-17T13:50:35.314Z,18.03
2018-05-17T13:53:02.831Z,18.87
2018-05-17T13:55:31.205Z,17.13
2018-05-17T13:57:58.701Z,15.93
2018-05-17T14:00:26.228Z,16.07
2018-05-17T14:02:54.640Z,14.40
2018-05-17T14:05:22.116Z,16.27
2018-05-17T14:07:49.641Z,12.27
2018-05-17T14:10:18.059Z,15.77
2018-05-17T14:12:45.603Z,16.13
2018-05-17T14:15:13.133Z,15.07
2018-05-17T14:17:41.453Z,13.60
2018-05-17T14:20:09.007Z,14.03
2018-05-17T14:22:36.551Z,20.20
2018-05-17T14:25:04.083Z,15.13
2018-05-17T14:27:31.608Z,14.77
2018-05-17T14:29:59.147Z,13.00
2018-05-17T14:32:26.690Z,15.03
2018-05-17T14:34:55.080Z,13.57
2018-05-17T14:37:22.596Z,17.43
2018-05-17T14:39:50.127Z,8.20
2018-05-17T14:42:17.643Z,12.20
2018-05-17T14:44:45.933Z,19.13
2018-05-17T14:47:13.477Z,12.43
2018-05-17T14:49:41.789Z,20.17
2018-05-17T14:52:09.317Z,17.73
2018-05-17T14:54:37.667Z,15.33
2018-05-17T14:57:05.992Z,17.53
2018-05-17T14:59:33.571Z,18.67
2018-05-17T15:02:01.129Z,17.53
2018-05-17T15:04:28.674Z,20.30
2018-05-17T15:06:56.192Z,16.23
2018-05-17T15:09:23.738Z,25.67
2018-05-17T15:11:51.264Z,17.23
2018-05-17T15:14:18.837Z,17.33
2018-05-17T15:16:46.379Z,19.50
2018-05-17T15:19:13.989Z,19.00
2018-05-17T15:21:41.500Z,14.30
2018-05-17T15:24:09.060Z,17.40
2018-05-17T15:26:36.595Z,19.30
2018-05-17T15:29:04.905Z,12.90
2018-05-17T15:31:32.446Z,14.70
2018-05-17T15:34:00.022Z,15.03
2018-05-17T15:36:28.294Z,16.53
2018-05-17T15:38:55.980Z,14.73
2018-05-17T15:41:23.544Z,14.93
2018-05-17T15:43:51.094Z,19.00
2018-05-17T15:46:18.616Z,19.00
2018-05-17T15:48:46.924Z,19.73
2018-05-17T15:51:14.474Z,11.97
2018-05-17T15:53:42.042Z,18.50
2018-05-17T15:56:09.570Z,16.97
2018-05-17T15:58:37.872Z,18.93
2018-05-17T16:01:05.396Z,17.47
2018-05-17T16:03:33.030Z,13.23
2018-05-17T16:06:00.565Z,22.77
2018-05-17T16:08:28.500Z,19.97
2018-05-17T16:10:55.984Z,16.67
2018-05-17T16:13:23.524Z,16.33
2018-05-17T16:15:51.833Z,19.43
2018-05-17T16:18:19.351Z,16.27
2018-05-17T16:20:47.656Z,18.73
2018-05-17T16:23:15.219Z,17.60
2018-05-17T16:25:42.786Z,16.57
2018-05-17T16:28:10.311Z,15.27
2018-05-17T16:30:38.622Z,38.83
2018-05-17T16:33:06.176Z,15.90
2018-05-17T16:35:33.703Z,13.23
2018-05-17T16:38:02.012Z,14.23
2018-05-17T16:40:29.541Z,17.37
2018-05-17T16:42:57.851Z,13.93
2018-05-17T16:45:25.426Z,13.03
2018-05-17T16:47:52.942Z,17.70
2018-05-17T16:50:21.268Z,16.33
2018-05-17T16:52:48.958Z,15.60
2018-05-17T16:55:16.798Z,16.83
2018-05-17T16:57:44.347Z,13.53
2018-05-17T17:00:11.897Z,13.93
2018-05-17T17:02:39.439Z,17.93
2018-05-17T17:05:07.033Z,16.63
2018-05-17T17:07:34.587Z,20.93
2018-05-17T17:10:02.120Z,11.17
2018-05-17T17:12:30.428Z,14.93
2018-05-17T17:14:57.983Z,17.10
2018-05-17T17:17:25.533Z,18.50
2018-05-17T17:19:53.066Z,13.37
2018-05-17T17:22:21.398Z,13.90
2018-05-17T17:24:48.949Z,19.47
2018-05-17T17:27:16.511Z,19.83
2018-05-17T17:29:44.066Z,17.13
2018-05-17T17:32:11.584Z,13.70
2018-05-17T17:34:39.876Z,16.73
2018-05-17T17:37:08.285Z,15.97
2018-05-17T17:39:35.801Z,15.40
2018-05-17T17:42:04.218Z,14.73
2018-05-17T17:44:31.754Z,20.57
2018-05-17T17:47:00.166Z,14.77
2018-05-17T17:49:27.719Z,13.27
2018-05-17T17:51:55.319Z,14.23
2018-05-17T17:54:23.644Z,17.23
2018-05-17T17:56:51.217Z,13.97
2018-05-17T17:59:18.764Z,11.97
2018-05-17T18:01:46.297Z,13.80
2018-05-17T18:04:13.900Z,17.20
2018-05-17T18:06:41.435Z,18.13
2018-05-17T18:09:09.743Z,14.47
2018-05-17T18:11:37.272Z,13.23
2018-05-17T18:14:05.560Z,15.57
2018-05-17T18:16:33.836Z,14.80
2018-05-17T18:19:01.382Z,18.23
2018-05-17T18:21:29.686Z,13.67
2018-05-17T18:23:57.288Z,11.23
2018-05-17T18:26:25.530Z,16.90
2018-05-17T18:28:53.071Z,15.17
2018-05-17T18:31:21.357Z,16.23
2018-05-17T18:33:48.959Z,15.17
2018-05-17T18:36:16.492Z,11.67
2018-05-17T18:38:44.008Z,13.10
2018-05-17T18:41:12.328Z,11.33
2018-05-17T18:43:39.879Z,14.47
2018-05-17T18:46:07.407Z,14.10
2018-05-17T18:48:35.728Z,18.43
2018-05-17T18:51:03.348Z,14.50
2018-05-17T18:53:30.850Z,12.73
2018-05-17T18:55:58.393Z,12.50
2018-05-17T18:58:25.928Z,14.27
2018-05-17T19:00:54.224Z,16.40
2018-05-17T19:03:21.810Z,14.17
2018-05-17T19:05:49.336Z,13.37
2018-05-17T19:08:17.642Z,13.23
2018-05-17T19:10:45.170Z,12.70
2018-05-17T19:13:13.483Z,18.93
2018-05-17T19:15:41.025Z,13.60
2018-05-17T19:18:08.597Z,14.27
2018-05-17T19:20:36.138Z,17.93
2018-05-17T19:23:04.452Z,12.60
2018-05-17T19:25:31.982Z,16.33
2018-05-17T19:28:00.272Z,13.33
2018-05-17T19:30:27.786Z,17.37
2018-05-17T19:32:55.320Z,16.53
2018-05-17T19:35:22.967Z,15.97
2018-05-17T19:37:50.484Z,16.47
2018-05-17T19:40:18.909Z,16.77
2018-05-17T19:42:46.437Z,14.77
2018-05-17T19:45:14.006Z,13.67
2018-05-17T19:47:42.272Z,17.93
2018-05-17T19:50:10.683Z,15.57
2018-05-17T19:52:38.231Z,20.17
2018-05-17T19:55:05.842Z,21.70
2018-05-17T19:57:33.437Z,16.87
2018-05-17T20:00:00.978Z,21.60
2018-05-17T20:02:29.286Z,16.93
2018-05-17T20:04:56.854Z,25.57
2018-05-17T20:07:24.415Z,19.30
2018-05-17T20:09:51.941Z,20.23
2018-05-17T20:12:20.392Z,18.70
2018-05-17T20:14:47.904Z,16.47
2018-05-17T20:17:15.433Z,18.23
2018-05-17T20:19:43.746Z,17.27
2018-05-17T20:22:11.269Z,17.37
2018-05-17T20:24:38.783Z,15.23
2018-05-17T20:27:06.435Z,16.43
2018-05-17T20:29:33.967Z,18.13
2018-05-17T20:32:02.253Z,20.93
2018-05-17T20:34:29.787Z,15.93
2018-05-17T20:36:57.318Z,19.03
2018-05-17T20:39:24.842Z,18.57
2018-05-17T20:41:52.369Z,17.30
2018-05-17T20:44:20.704Z,16.17
2018-05-17T20:46:48.232Z,17.70
2018-05-17T20:49:15.777Z,16.10
2018-05-17T20:51:44.065Z,20.67
2018-05-17T20:54:11.583Z,16.60
2018-05-17T20:56:39.121Z,19.53
2018-05-17T20:59:06.641Z,18.70
2018-05-17T21:01:34.927Z,15.90
2018-05-17T21:04:02.500Z,18.70
2018-05-17T21:06:30.029Z,20.37
2018-05-17T21:08:58.306Z,19.47
2018-05-17T21:11:26.601Z,19.53
2018-05-17T21:13:54.173Z,22.57
2018-05-17T21:16:21.724Z,17.23
2018-05-17T21:18:49.306Z,16.63
2018-05-17T21:21:16.844Z,19.33
2018-05-17T21:23:44.416Z,19.43
2018-05-17T21:26:11.951Z,18.53
2018-05-17T21:28:40.242Z,19.70
2018-05-17T21:31:07.755Z,19.47
2018-05-17T21:33:35.296Z,24.30
2018-05-17T21:36:02.813Z,16.47
2018-05-17T21:38:30.391Z,14.83
2018-05-17T21:40:57.928Z,15.77
2018-05-17T21:43:25.462Z,19.73
2018-05-17T21:45:54.497Z,18.47
2018-05-17T21:48:22.017Z,16.57
2018-05-17T21:50:49.622Z,17.93
2018-05-17T21:53:17.177Z,21.03
2018-05-17T21:55:44.708Z,20.07
2018-05-17T21:58:12.988Z,18.03
2018-05-17T22:00:41.288Z,18.23
2018-05-17T22:03:08.853Z,18.23
2018-05-17T22:05:36.430Z,33.40
2018-05-17T22:08:04.668Z,15.07
2018-05-17T22:10:32.961Z,21.23
2018-05-17T22:13:00.490Z,14.67
2018-05-17T22:15:28.020Z,19.57
2018-05-17T22:17:55.736Z,22.30
2018-05-17T22:20:23.253Z,18.57
2018-05-17T22:22:50.764Z,19.30
2018-05-17T22:25:18.292Z,22.23
2018-05-17T22:27:46.568Z,19.67
2018-05-17T22:30:14.178Z,21.37
2018-05-17T22:32:41.740Z,16.63
2018-05-17T22:35:09.248Z,22.53
2018-05-17T22:37:37.578Z,20.53
2018-05-17T22:40:05.116Z,22.33
2018-05-17T22:42:32.691Z,18.50
2018-05-17T22:45:00.240Z,15.83
2018-05-17T22:47:27.799Z,23.60
2018-05-17T22:49:55.366Z,18.07
2018-05-17T22:52:22.920Z,15.10
2018-05-17T22:54:50.500Z,17.87
2018-05-17T22:57:41.753Z,18.63
2018-05-17T23:00:09.371Z,16.53
2018-05-17T23:02:36.888Z,17.40
2018-05-17T23:05:04.425Z,14.93
2018-05-17T23:07:31.963Z,19.47
2018-05-17T23:09:59.507Z,18.70
2018-05-17T23:12:27.061Z,18.63
2018-05-17T23:14:54.589Z,19.63
2018-05-17T23:17:22.873Z,22.70
2018-05-17T23:19:51.171Z,24.60
2018-05-17T23:22:30.667Z,19.73
2018-05-17T23:24:58.201Z,16.03
2018-05-17T23:27:25.719Z,18.07
2018-05-17T23:29:54.017Z,18.93
2018-05-17T23:32:21.529Z,22.83
2018-05-17T23:34:49.143Z,21.13
2018-05-17T23:37:20.657Z,20.27
2018-05-17T23:39:48.963Z,22.00
2018-05-17T23:42:16.534Z,23.73
2018-05-17T23:44:44.053Z,20.70
2018-05-17T23:47:12.367Z,19.70
2018-05-17T23:49:39.921Z,26.43
2018-05-17T23:52:07.475Z,21.40
2018-05-17T23:54:35.052Z,15.07
2018-05-17T23:57:02.561Z,24.37
2018-05-17T23:59:30.089Z,22.60
